sensor_id;sensor_type;location;lat;lon;timestamp;P1;durP1;ratioP1;P2;durP2;ratioP2
62580;SDS011;48640;48.770;9.148;2022-11-20T00:03:40;6.15;;;3.05;;
62580;SDS011;48640;48.770;9.148;2022-11-20T00:06:08;4.60;;;3.10;;
62580;SDS011;48640;48.770;9.148;2022-11-20T00:08:38;6.50;;;3.78;;
62580;SDS011;48640;48.770;9.148;2022-11-20T00:11:06;6.30;;;4.28;;
62580;SDS011;48640;48.770;9.148;2022-11-20T00:13:33;6.00;;;3.35;;
62580;SDS011;48640;48.770;9.148;2022-11-20T00:16:01;7.10;;;3.80;;
62580;SDS011;48640;48.770;9.148;2022-11-20T00:18:29;6.05;;;3.25;;
62580;SDS011;48640;48.770;9.148;2022-11-20T00:21:00;6.03;;;2.90;;
62580;SDS011;48640;48.770;9.148;2022-11-20T00:23:28;6.63;;;3.17;;
62580;SDS011;48640;48.770;9.148;2022-11-20T00:25:56;4.82;;;3.03;;
62580;SDS011;48640;48.770;9.148;2022-11-20T00:28:23;8.10;;;3.17;;
62580;SDS011;48640;48.770;9.148;2022-11-20T00:30:50;6.22;;;3.42;;
62580;SDS011;48640;48.770;9.148;2022-11-20T00:33:17;5.95;;;3.00;;
62580;SDS011;48640;48.770;9.148;2022-11-20T00:35:43;3.40;;;2.55;;
62580;SDS011;48640;48.770;9.148;2022-11-20T00:38:10;5.13;;;3.45;;
62580;SDS011;48640;48.770;9.148;2022-11-20T00:40:37;3.70;;;2.33;;
62580;SDS011;48640;48.770;9.148;2022-11-20T00:43:05;5.47;;;2.63;;
62580;SDS011;48640;48.770;9.148;2022-11-20T00:45:32;4.75;;;2.72;;
62580;SDS011;48640;48.770;9.148;2022-11-20T00:47:59;4.95;;;3.22;;
62580;SDS011;48640;48.770;9.148;2022-11-20T00:50:25;4.82;;;2.80;;
62580;SDS011;48640;48.770;9.148;2022-11-20T00:52:52;5.90;;;3.00;;
62580;SDS011;48640;48.770;9.148;2022-11-20T00:55:19;4.22;;;2.30;;
62580;SDS011;48640;48.770;9.148;2022-11-20T00:57:46;4.38;;;2.80;;
62580;SDS011;48640;48.770;9.148;2022-11-20T01:00:14;3.70;;;2.50;;
62580;SDS011;48640;48.770;9.148;2022-11-20T01:02:41;5.65;;;2.70;;
62580;SDS011;48640;48.770;9.148;2022-11-20T01:05:08;4.38;;;2.45;;
62580;SDS011;48640;48.770;9.148;2022-11-20T01:07:34;7.30;;;2.83;;
62580;SDS011;48640;48.770;9.148;2022-11-20T01:10:01;3.50;;;2.30;;
62580;SDS011;48640;48.770;9.148;2022-11-20T01:12:28;5.05;;;3.00;;
62580;SDS011;48640;48.770;9.148;2022-11-20T01:14:55;3.33;;;2.03;;
62580;SDS011;48640;48.770;9.148;2022-11-20T01:17:23;3.60;;;2.33;;
62580;SDS011;48640;48.770;9.148;2022-11-20T01:19:50;5.95;;;2.90;;
62580;SDS011;48640;48.770;9.148;2022-11-20T01:22:17;3.90;;;2.63;;
62580;SDS011;48640;48.770;9.148;2022-11-20T01:24:44;4.72;;;2.30;;
62580;SDS011;48640;48.770;9.148;2022-11-20T01:27:10;3.85;;;2.47;;
62580;SDS011;48640;48.770;9.148;2022-11-20T01:29:37;4.13;;;2.33;;
62580;SDS011;48640;48.770;9.148;2022-11-20T01:32:04;4.43;;;2.50;;
62580;SDS011;48640;48.770;9.148;2022-11-20T01:34:32;4.20;;;2.70;;
62580;SDS011;48640;48.770;9.148;2022-11-20T01:36:59;6.68;;;3.25;;
62580;SDS011;48640;48.770;9.148;2022-11-20T01:39:26;5.15;;;2.40;;
62580;SDS011;48640;48.770;9.148;2022-11-20T01:41:53;4.57;;;2.83;;
62580;SDS011;48640;48.770;9.148;2022-11-20T01:47:28;4.47;;;2.83;;
62580;SDS011;48640;48.770;9.148;2022-11-20T01:50:01;4.20;;;2.42;;
62580;SDS011;48640;48.770;9.148;2022-11-20T01:52:32;3.65;;;2.15;;
62580;SDS011;48640;48.770;9.148;2022-11-20T01:55:04;3.65;;;2.20;;
62580;SDS011;48640;48.770;9.148;2022-11-20T01:57:33;3.78;;;2.10;;
62580;SDS011;48640;48.770;9.148;2022-11-20T02:00:03;4.20;;;2.08;;
62580;SDS011;48640;48.770;9.148;2022-11-20T02:02:32;4.03;;;2.45;;
62580;SDS011;48640;48.770;9.148;2022-11-20T02:05:03;4.82;;;2.53;;
62580;SDS011;48640;48.770;9.148;2022-11-20T02:07:35;4.00;;;2.60;;
62580;SDS011;48640;48.770;9.148;2022-11-20T02:10:03;3.10;;;2.05;;
62580;SDS011;48640;48.770;9.148;2022-11-20T02:12:30;4.70;;;2.30;;
62580;SDS011;48640;48.770;9.148;2022-11-20T02:15:15;4.65;;;2.00;;
62580;SDS011;48640;48.770;9.148;2022-11-20T02:17:42;5.05;;;2.63;;
62580;SDS011;48640;48.770;9.148;2022-11-20T02:20:10;4.03;;;2.30;;
62580;SDS011;48640;48.770;9.148;2022-11-20T02:22:38;4.47;;;2.50;;
62580;SDS011;48640;48.770;9.148;2022-11-20T02:25:12;5.20;;;2.90;;
62580;SDS011;48640;48.770;9.148;2022-11-20T02:27:40;3.85;;;2.40;;
62580;SDS011;48640;48.770;9.148;2022-11-20T02:30:07;4.30;;;2.65;;
62580;SDS011;48640;48.770;9.148;2022-11-20T02:32:36;4.22;;;2.58;;
62580;SDS011;48640;48.770;9.148;2022-11-20T02:35:07;4.20;;;2.40;;
62580;SDS011;48640;48.770;9.148;2022-11-20T02:37:35;3.22;;;2.13;;
62580;SDS011;48640;48.770;9.148;2022-11-20T02:40:05;4.90;;;2.67;;
62580;SDS011;48640;48.770;9.148;2022-11-20T02:42:34;4.32;;;2.65;;
62580;SDS011;48640;48.770;9.148;2022-11-20T02:45:01;4.20;;;2.40;;
62580;SDS011;48640;48.770;9.148;2022-11-20T02:47:28;4.53;;;2.13;;
62580;SDS011;48640;48.770;9.148;2022-11-20T02:49:55;3.25;;;2.03;;
62580;SDS011;48640;48.770;9.148;2022-11-20T02:52:22;4.65;;;2.25;;
62580;SDS011;48640;48.770;9.148;2022-11-20T02:54:49;3.97;;;2.20;;
62580;SDS011;48640;48.770;9.148;2022-11-20T02:57:15;3.17;;;2.08;;
62580;SDS011;48640;48.770;9.148;2022-11-20T02:59:44;3.40;;;2.38;;
62580;SDS011;48640;48.770;9.148;2022-11-20T03:02:10;4.55;;;2.20;;
62580;SDS011;48640;48.770;9.148;2022-11-20T03:04:37;5.03;;;2.25;;
62580;SDS011;48640;48.770;9.148;2022-11-20T03:07:04;3.03;;;1.92;;
62580;SDS011;48640;48.770;9.148;2022-11-20T03:09:31;4.10;;;2.25;;
62580;SDS011;48640;48.770;9.148;2022-11-20T03:11:57;3.85;;;2.17;;
62580;SDS011;48640;48.770;9.148;2022-11-20T03:14:24;3.90;;;2.40;;
62580;SDS011;48640;48.770;9.148;2022-11-20T03:16:52;4.30;;;2.55;;
62580;SDS011;48640;48.770;9.148;2022-11-20T03:19:19;4.32;;;2.40;;
62580;SDS011;48640;48.770;9.148;2022-11-20T03:21:46;3.72;;;2.13;;
62580;SDS011;48640;48.770;9.148;2022-11-20T03:24:13;4.88;;;2.70;;
62580;SDS011;48640;48.770;9.148;2022-11-20T03:26:40;5.10;;;2.60;;
62580;SDS011;48640;48.770;9.148;2022-11-20T03:29:07;4.57;;;2.70;;
62580;SDS011;48640;48.770;9.148;2022-11-20T03:31:34;3.83;;;2.50;;
62580;SDS011;48640;48.770;9.148;2022-11-20T03:34:06;5.18;;;2.38;;
62580;SDS011;48640;48.770;9.148;2022-11-20T03:36:34;5.05;;;2.80;;
62580;SDS011;48640;48.770;9.148;2022-11-20T03:39:01;3.42;;;2.50;;
62580;SDS011;48640;48.770;9.148;2022-11-20T03:41:28;4.55;;;2.83;;
62580;SDS011;48640;48.770;9.148;2022-11-20T03:43:56;4.93;;;2.50;;
62580;SDS011;48640;48.770;9.148;2022-11-20T03:46:24;4.85;;;2.85;;
62580;SDS011;48640;48.770;9.148;2022-11-20T03:48:52;4.18;;;2.60;;
62580;SDS011;48640;48.770;9.148;2022-11-20T03:51:21;4.60;;;2.45;;
62580;SDS011;48640;48.770;9.148;2022-11-20T03:53:49;3.40;;;2.25;;
62580;SDS011;48640;48.770;9.148;2022-11-20T03:56:18;5.95;;;2.88;;
62580;SDS011;48640;48.770;9.148;2022-11-20T03:58:46;5.18;;;3.35;;
62580;SDS011;48640;48.770;9.148;2022-11-20T04:01:14;5.72;;;3.30;;
62580;SDS011;48640;48.770;9.148;2022-11-20T04:03:42;3.85;;;2.92;;
62580;SDS011;48640;48.770;9.148;2022-11-20T04:06:10;5.55;;;3.38;;
62580;SDS011;48640;48.770;9.148;2022-11-20T04:08:40;5.20;;;3.30;;
62580;SDS011;48640;48.770;9.148;2022-11-20T04:11:08;5.10;;;3.17;;
62580;SDS011;48640;48.770;9.148;2022-11-20T04:13:36;5.05;;;3.10;;
62580;SDS011;48640;48.770;9.148;2022-11-20T04:16:03;6.35;;;3.10;;
62580;SDS011;48640;48.770;9.148;2022-11-20T04:18:31;6.97;;;3.72;;
62580;SDS011;48640;48.770;9.148;2022-11-20T04:20:58;4.22;;;2.70;;
62580;SDS011;48640;48.770;9.148;2022-11-20T04:23:25;4.57;;;3.58;;
62580;SDS011;48640;48.770;9.148;2022-11-20T04:25:53;5.07;;;3.03;;
62580;SDS011;48640;48.770;9.148;2022-11-20T04:28:20;6.13;;;3.45;;
62580;SDS011;48640;48.770;9.148;2022-11-20T04:30:47;4.85;;;3.22;;
62580;SDS011;48640;48.770;9.148;2022-11-20T04:33:14;5.88;;;3.03;;
62580;SDS011;48640;48.770;9.148;2022-11-20T04:35:40;4.15;;;3.08;;
62580;SDS011;48640;48.770;9.148;2022-11-20T04:38:07;4.63;;;2.53;;
62580;SDS011;48640;48.770;9.148;2022-11-20T04:40:34;4.70;;;3.03;;
62580;SDS011;48640;48.770;9.148;2022-11-20T04:43:02;5.07;;;2.70;;
62580;SDS011;48640;48.770;9.148;2022-11-20T04:45:29;5.47;;;2.95;;
62580;SDS011;48640;48.770;9.148;2022-11-20T04:47:55;4.10;;;2.88;;
62580;SDS011;48640;48.770;9.148;2022-11-20T04:50:22;6.95;;;3.13;;
62580;SDS011;48640;48.770;9.148;2022-11-20T04:52:49;7.68;;;2.85;;
62580;SDS011;48640;48.770;9.148;2022-11-20T04:55:16;4.88;;;2.90;;
62580;SDS011;48640;48.770;9.148;2022-11-20T04:57:42;4.63;;;3.22;;
62580;SDS011;48640;48.770;9.148;2022-11-20T05:00:11;4.05;;;2.80;;
62580;SDS011;48640;48.770;9.148;2022-11-20T05:02:39;5.03;;;3.55;;
62580;SDS011;48640;48.770;9.148;2022-11-20T05:05:06;4.95;;;2.95;;
62580;SDS011;48640;48.770;9.148;2022-11-20T05:07:33;4.90;;;2.60;;
62580;SDS011;48640;48.770;9.148;2022-11-20T05:10:00;4.00;;;2.80;;
62580;SDS011;48640;48.770;9.148;2022-11-20T05:12:26;4.60;;;2.78;;
62580;SDS011;48640;48.770;9.148;2022-11-20T05:14:53;5.38;;;2.90;;
62580;SDS011;48640;48.770;9.148;2022-11-20T05:17:21;3.22;;;2.58;;
62580;SDS011;48640;48.770;9.148;2022-11-20T05:19:48;4.95;;;2.60;;
62580;SDS011;48640;48.770;9.148;2022-11-20T05:22:15;7.40;;;2.78;;
62580;SDS011;48640;48.770;9.148;2022-11-20T05:24:42;4.60;;;2.83;;
62580;SDS011;48640;48.770;9.148;2022-11-20T05:27:08;4.25;;;2.70;;
62580;SDS011;48640;48.770;9.148;2022-11-20T05:29:35;5.22;;;2.40;;
62580;SDS011;48640;48.770;9.148;2022-11-20T05:32:02;4.80;;;3.20;;
62580;SDS011;48640;48.770;9.148;2022-11-20T05:34:32;5.78;;;2.90;;
62580;SDS011;48640;48.770;9.148;2022-11-20T05:36:59;4.13;;;3.13;;
62580;SDS011;48640;48.770;9.148;2022-11-20T05:39:25;3.95;;;2.50;;
62580;SDS011;48640;48.770;9.148;2022-11-20T05:41:52;3.80;;;2.45;;
62580;SDS011;48640;48.770;9.148;2022-11-20T05:44:33;4.43;;;2.42;;
62580;SDS011;48640;48.770;9.148;2022-11-20T05:46:59;3.92;;;2.60;;
62580;SDS011;48640;48.770;9.148;2022-11-20T05:49:26;3.38;;;2.30;;
62580;SDS011;48640;48.770;9.148;2022-11-20T05:51:54;4.60;;;2.67;;
62580;SDS011;48640;48.770;9.148;2022-11-20T05:54:21;3.20;;;1.98;;
62580;SDS011;48640;48.770;9.148;2022-11-20T05:56:48;4.10;;;2.53;;
62580;SDS011;48640;48.770;9.148;2022-11-20T05:59:14;5.72;;;2.50;;
62580;SDS011;48640;48.770;9.148;2022-11-20T06:01:41;4.93;;;2.78;;
62580;SDS011;48640;48.770;9.148;2022-11-20T06:04:08;4.13;;;2.20;;
62580;SDS011;48640;48.770;9.148;2022-11-20T06:06:35;3.80;;;2.58;;
62580;SDS011;48640;48.770;9.148;2022-11-20T06:09:03;3.75;;;2.55;;
62580;SDS011;48640;48.770;9.148;2022-11-20T06:11:30;3.58;;;2.45;;
62580;SDS011;48640;48.770;9.148;2022-11-20T06:13:57;3.25;;;2.20;;
62580;SDS011;48640;48.770;9.148;2022-11-20T06:16:23;5.60;;;2.50;;
62580;SDS011;48640;48.770;9.148;2022-11-20T06:18:50;5.82;;;3.08;;
62580;SDS011;48640;48.770;9.148;2022-11-20T06:21:18;5.20;;;2.40;;
62580;SDS011;48640;48.770;9.148;2022-11-20T06:23:46;4.75;;;2.22;;
62580;SDS011;48640;48.770;9.148;2022-11-20T06:26:15;3.10;;;2.20;;
62580;SDS011;48640;48.770;9.148;2022-11-20T06:28:43;3.35;;;2.33;;
62580;SDS011;48640;48.770;9.148;2022-11-20T06:31:10;3.92;;;2.00;;
62580;SDS011;48640;48.770;9.148;2022-11-20T06:33:38;5.05;;;2.30;;
62580;SDS011;48640;48.770;9.148;2022-11-20T06:36:05;4.47;;;2.05;;
62580;SDS011;48640;48.770;9.148;2022-11-20T06:38:32;4.85;;;2.00;;
62580;SDS011;48640;48.770;9.148;2022-11-20T06:40:59;2.85;;;2.13;;
62580;SDS011;48640;48.770;9.148;2022-11-20T06:43:28;3.50;;;2.00;;
62580;SDS011;48640;48.770;9.148;2022-11-20T06:45:55;6.72;;;2.35;;
62580;SDS011;48640;48.770;9.148;2022-11-20T06:48:25;4.63;;;2.65;;
62580;SDS011;48640;48.770;9.148;2022-11-20T06:50:52;3.92;;;2.03;;
62580;SDS011;48640;48.770;9.148;2022-11-20T06:53:19;3.97;;;1.80;;
62580;SDS011;48640;48.770;9.148;2022-11-20T06:55:47;4.78;;;1.95;;
62580;SDS011;48640;48.770;9.148;2022-11-20T06:58:15;5.35;;;1.95;;
62580;SDS011;48640;48.770;9.148;2022-11-20T07:00:43;3.13;;;1.77;;
62580;SDS011;48640;48.770;9.148;2022-11-20T07:03:11;3.40;;;2.17;;
62580;SDS011;48640;48.770;9.148;2022-11-20T07:05:38;3.30;;;1.92;;
62580;SDS011;48640;48.770;9.148;2022-11-20T07:08:05;3.60;;;1.65;;
62580;SDS011;48640;48.770;9.148;2022-11-20T07:10:32;3.00;;;1.85;;
62580;SDS011;48640;48.770;9.148;2022-11-20T07:12:59;2.85;;;1.75;;
62580;SDS011;48640;48.770;9.148;2022-11-20T07:15:26;3.00;;;1.90;;
62580;SDS011;48640;48.770;9.148;2022-11-20T07:17:54;3.25;;;2.42;;
62580;SDS011;48640;48.770;9.148;2022-11-20T07:20:24;4.22;;;1.80;;
62580;SDS011;48640;48.770;9.148;2022-11-20T07:22:52;3.28;;;1.98;;
62580;SDS011;48640;48.770;9.148;2022-11-20T07:25:20;4.10;;;2.10;;
62580;SDS011;48640;48.770;9.148;2022-11-20T07:27:47;3.00;;;2.03;;
62580;SDS011;48640;48.770;9.148;2022-11-20T07:30:14;2.72;;;1.90;;
62580;SDS011;48640;48.770;9.148;2022-11-20T07:32:41;4.70;;;2.38;;
62580;SDS011;48640;48.770;9.148;2022-11-20T07:35:09;3.10;;;1.70;;
62580;SDS011;48640;48.770;9.148;2022-11-20T07:37:36;3.45;;;2.10;;
62580;SDS011;48640;48.770;9.148;2022-11-20T07:40:03;4.93;;;2.08;;
62580;SDS011;48640;48.770;9.148;2022-11-20T07:42:30;4.38;;;1.50;;
62580;SDS011;48640;48.770;9.148;2022-11-20T07:44:57;3.65;;;1.77;;
62580;SDS011;48640;48.770;9.148;2022-11-20T07:47:24;3.20;;;1.80;;
62580;SDS011;48640;48.770;9.148;2022-11-20T07:49:51;4.20;;;2.13;;
62580;SDS011;48640;48.770;9.148;2022-11-20T07:52:19;3.28;;;1.77;;
62580;SDS011;48640;48.770;9.148;2022-11-20T07:54:45;4.20;;;1.50;;
62580;SDS011;48640;48.770;9.148;2022-11-20T07:57:12;3.38;;;2.15;;
62580;SDS011;48640;48.770;9.148;2022-11-20T07:59:39;3.35;;;1.90;;
62580;SDS011;48640;48.770;9.148;2022-11-20T08:02:09;4.03;;;1.63;;
62580;SDS011;48640;48.770;9.148;2022-11-20T08:04:36;2.40;;;1.60;;
62580;SDS011;48640;48.770;9.148;2022-11-20T08:07:03;2.92;;;1.63;;
62580;SDS011;48640;48.770;9.148;2022-11-20T08:09:31;2.45;;;1.27;;
62580;SDS011;48640;48.770;9.148;2022-11-20T08:11:58;3.50;;;1.50;;
62580;SDS011;48640;48.770;9.148;2022-11-20T08:14:42;2.55;;;1.65;;
62580;SDS011;48640;48.770;9.148;2022-11-20T08:17:09;4.28;;;1.77;;
62580;SDS011;48640;48.770;9.148;2022-11-20T08:19:36;3.63;;;1.90;;
62580;SDS011;48640;48.770;9.148;2022-11-20T08:22:03;2.83;;;1.48;;
62580;SDS011;48640;48.770;9.148;2022-11-20T08:24:31;3.25;;;1.58;;
62580;SDS011;48640;48.770;9.148;2022-11-20T08:26:57;3.15;;;2.22;;
62580;SDS011;48640;48.770;9.148;2022-11-20T08:29:25;3.03;;;1.42;;
62580;SDS011;48640;48.770;9.148;2022-11-20T08:31:52;3.50;;;1.70;;
62580;SDS011;48640;48.770;9.148;2022-11-20T08:34:19;2.35;;;1.40;;
62580;SDS011;48640;48.770;9.148;2022-11-20T08:36:46;3.15;;;1.60;;
62580;SDS011;48640;48.770;9.148;2022-11-20T08:39:13;3.20;;;1.40;;
62580;SDS011;48640;48.770;9.148;2022-11-20T08:41:41;3.72;;;1.85;;
62580;SDS011;48640;48.770;9.148;2022-11-20T08:44:08;3.58;;;1.73;;
62580;SDS011;48640;48.770;9.148;2022-11-20T08:46:35;4.32;;;1.50;;
62580;SDS011;48640;48.770;9.148;2022-11-20T08:49:03;2.60;;;1.70;;
62580;SDS011;48640;48.770;9.148;2022-11-20T08:51:31;3.70;;;1.40;;
62580;SDS011;48640;48.770;9.148;2022-11-20T08:53:58;2.88;;;1.35;;
62580;SDS011;48640;48.770;9.148;2022-11-20T08:56:24;2.22;;;1.13;;
62580;SDS011;48640;48.770;9.148;2022-11-20T08:58:52;2.53;;;1.40;;
62580;SDS011;48640;48.770;9.148;2022-11-20T09:01:20;2.53;;;1.17;;
62580;SDS011;48640;48.770;9.148;2022-11-20T09:03:48;2.38;;;1.20;;
62580;SDS011;48640;48.770;9.148;2022-11-20T09:06:14;1.77;;;1.10;;
62580;SDS011;48640;48.770;9.148;2022-11-20T09:08:42;2.65;;;1.20;;
62580;SDS011;48640;48.770;9.148;2022-11-20T09:11:09;2.97;;;1.50;;
62580;SDS011;48640;48.770;9.148;2022-11-20T09:13:35;1.90;;;1.10;;
62580;SDS011;48640;48.770;9.148;2022-11-20T09:16:05;2.05;;;1.10;;
62580;SDS011;48640;48.770;9.148;2022-11-20T09:18:34;1.67;;;0.90;;
62580;SDS011;48640;48.770;9.148;2022-11-20T09:21:03;3.03;;;1.13;;
62580;SDS011;48640;48.770;9.148;2022-11-20T09:23:32;1.80;;;1.00;;
62580;SDS011;48640;48.770;9.148;2022-11-20T09:26:01;2.40;;;1.10;;
62580;SDS011;48640;48.770;9.148;2022-11-20T09:28:29;2.13;;;0.95;;
62580;SDS011;48640;48.770;9.148;2022-11-20T09:30:56;1.38;;;0.80;;
62580;SDS011;48640;48.770;9.148;2022-11-20T09:33:24;2.38;;;1.05;;
62580;SDS011;48640;48.770;9.148;2022-11-20T09:35:51;2.45;;;0.90;;
62580;SDS011;48640;48.770;9.148;2022-11-20T09:38:18;1.40;;;0.70;;
62580;SDS011;48640;48.770;9.148;2022-11-20T09:40:45;1.50;;;0.80;;
62580;SDS011;48640;48.770;9.148;2022-11-20T09:43:18;1.38;;;0.70;;
62580;SDS011;48640;48.770;9.148;2022-11-20T09:45:54;1.17;;;0.70;;
62580;SDS011;48640;48.770;9.148;2022-11-20T09:48:39;1.67;;;0.70;;
62580;SDS011;48640;48.770;9.148;2022-11-20T09:51:16;0.90;;;0.60;;
62580;SDS011;48640;48.770;9.148;2022-11-20T09:53:55;1.55;;;0.68;;
62580;SDS011;48640;48.770;9.148;2022-11-20T09:56:30;0.47;;;0.38;;
62580;SDS011;48640;48.770;9.148;2022-11-20T09:59:02;0.82;;;0.70;;
62580;SDS011;48640;48.770;9.148;2022-11-20T10:01:31;1.20;;;0.95;;
62580;SDS011;48640;48.770;9.148;2022-11-20T10:04:03;0.98;;;0.60;;
62580;SDS011;48640;48.770;9.148;2022-11-20T10:06:32;1.50;;;0.80;;
62580;SDS011;48640;48.770;9.148;2022-11-20T10:09:08;1.83;;;0.60;;
62580;SDS011;48640;48.770;9.148;2022-11-20T10:11:48;1.17;;;0.70;;
62580;SDS011;48640;48.770;9.148;2022-11-20T10:14:23;1.55;;;1.00;;
62580;SDS011;48640;48.770;9.148;2022-11-20T10:16:58;1.85;;;0.80;;
62580;SDS011;48640;48.770;9.148;2022-11-20T10:19:40;1.35;;;0.73;;
62580;SDS011;48640;48.770;9.148;2022-11-20T10:22:21;1.50;;;0.68;;
62580;SDS011;48640;48.770;9.148;2022-11-20T10:25:00;1.42;;;0.75;;
62580;SDS011;48640;48.770;9.148;2022-11-20T10:27:35;1.02;;;0.60;;
62580;SDS011;48640;48.770;9.148;2022-11-20T10:30:18;2.78;;;0.90;;
62580;SDS011;48640;48.770;9.148;2022-11-20T10:32:50;1.70;;;0.80;;
62580;SDS011;48640;48.770;9.148;2022-11-20T10:35:22;1.58;;;0.68;;
62580;SDS011;48640;48.770;9.148;2022-11-20T10:37:54;1.83;;;1.02;;
62580;SDS011;48640;48.770;9.148;2022-11-20T10:40:27;2.10;;;0.90;;
62580;SDS011;48640;48.770;9.148;2022-11-20T10:42:59;1.52;;;0.85;;
62580;SDS011;48640;48.770;9.148;2022-11-20T10:45:33;1.52;;;0.90;;
62580;SDS011;48640;48.770;9.148;2022-11-20T10:48:10;1.73;;;0.82;;
62580;SDS011;48640;48.770;9.148;2022-11-20T10:50:47;1.95;;;1.05;;
62580;SDS011;48640;48.770;9.148;2022-11-20T10:53:25;3.33;;;1.27;;
62580;SDS011;48640;48.770;9.148;2022-11-20T10:56:12;1.65;;;0.75;;
62580;SDS011;48640;48.770;9.148;2022-11-20T10:58:45;1.77;;;0.90;;
62580;SDS011;48640;48.770;9.148;2022-11-20T11:01:20;1.92;;;0.95;;
62580;SDS011;48640;48.770;9.148;2022-11-20T11:03:48;2.15;;;0.70;;
62580;SDS011;48640;48.770;9.148;2022-11-20T11:06:19;3.28;;;1.15;;
62580;SDS011;48640;48.770;9.148;2022-11-20T11:08:51;5.18;;;1.40;;
62580;SDS011;48640;48.770;9.148;2022-11-20T11:11:21;2.50;;;1.20;;
62580;SDS011;48640;48.770;9.148;2022-11-20T11:13:50;1.80;;;0.80;;
62580;SDS011;48640;48.770;9.148;2022-11-20T11:16:20;3.10;;;1.33;;
62580;SDS011;48640;48.770;9.148;2022-11-20T11:18:48;2.47;;;1.00;;
62580;SDS011;48640;48.770;9.148;2022-11-20T11:21:22;3.80;;;1.20;;
62580;SDS011;48640;48.770;9.148;2022-11-20T11:23:57;1.92;;;1.00;;
62580;SDS011;48640;48.770;9.148;2022-11-20T11:26:28;2.65;;;1.10;;
62580;SDS011;48640;48.770;9.148;2022-11-20T11:28:55;2.80;;;0.90;;
62580;SDS011;48640;48.770;9.148;2022-11-20T11:31:24;2.25;;;1.13;;
62580;SDS011;48640;48.770;9.148;2022-11-20T11:33:51;2.33;;;1.40;;
62580;SDS011;48640;48.770;9.148;2022-11-20T11:36:19;3.30;;;1.35;;
62580;SDS011;48640;48.770;9.148;2022-11-20T11:38:50;1.90;;;1.05;;
62580;SDS011;48640;48.770;9.148;2022-11-20T11:41:20;4.68;;;1.38;;
62580;SDS011;48640;48.770;9.148;2022-11-20T11:43:51;2.42;;;1.38;;
62580;SDS011;48640;48.770;9.148;2022-11-20T11:46:37;4.20;;;2.65;;
62580;SDS011;48640;48.770;9.148;2022-11-20T11:49:15;3.30;;;1.30;;
62580;SDS011;48640;48.770;9.148;2022-11-20T11:51:50;4.60;;;1.35;;
62580;SDS011;48640;48.770;9.148;2022-11-20T11:54:33;3.67;;;1.48;;
62580;SDS011;48640;48.770;9.148;2022-11-20T11:57:05;3.80;;;1.60;;
62580;SDS011;48640;48.770;9.148;2022-11-20T11:59:41;3.38;;;1.27;;
62580;SDS011;48640;48.770;9.148;2022-11-20T12:02:22;3.53;;;1.30;;
62580;SDS011;48640;48.770;9.148;2022-11-20T12:04:57;3.78;;;1.45;;
62580;SDS011;48640;48.770;9.148;2022-11-20T12:07:32;3.30;;;1.23;;
62580;SDS011;48640;48.770;9.148;2022-11-20T12:10:06;4.55;;;1.58;;
62580;SDS011;48640;48.770;9.148;2022-11-20T12:12:44;5.25;;;1.45;;
62580;SDS011;48640;48.770;9.148;2022-11-20T12:15:16;3.88;;;1.10;;
62580;SDS011;48640;48.770;9.148;2022-11-20T12:17:52;3.17;;;1.55;;
62580;SDS011;48640;48.770;9.148;2022-11-20T12:20:19;2.92;;;1.17;;
62580;SDS011;48640;48.770;9.148;2022-11-20T12:22:51;5.53;;;1.27;;
62580;SDS011;48640;48.770;9.148;2022-11-20T12:25:22;4.53;;;1.38;;
62580;SDS011;48640;48.770;9.148;2022-11-20T12:30:58;1.77;;;0.85;;
62580;SDS011;48640;48.770;9.148;2022-11-20T12:33:41;2.22;;;0.93;;
62580;SDS011;48640;48.770;9.148;2022-11-20T12:36:23;3.33;;;1.10;;
62580;SDS011;48640;48.770;9.148;2022-11-20T12:39:05;3.83;;;1.15;;
62580;SDS011;48640;48.770;9.148;2022-11-20T12:41:47;1.50;;;0.90;;
62580;SDS011;48640;48.770;9.148;2022-11-20T12:44:42;3.15;;;0.95;;
62580;SDS011;48640;48.770;9.148;2022-11-20T12:47:38;2.13;;;0.98;;
62580;SDS011;48640;48.770;9.148;2022-11-20T12:50:32;1.85;;;0.80;;
62580;SDS011;48640;48.770;9.148;2022-11-20T12:53:07;1.77;;;0.70;;
62580;SDS011;48640;48.770;9.148;2022-11-20T12:55:46;1.00;;;0.63;;
62580;SDS011;48640;48.770;9.148;2022-11-20T12:58:24;2.10;;;0.65;;
62580;SDS011;48640;48.770;9.148;2022-11-20T13:00:59;3.55;;;0.85;;
62580;SDS011;48640;48.770;9.148;2022-11-20T13:03:54;1.38;;;0.70;;
62580;SDS011;48640;48.770;9.148;2022-11-20T13:06:23;2.47;;;0.65;;
62580;SDS011;48640;48.770;9.148;2022-11-20T13:08:52;2.47;;;0.77;;
62580;SDS011;48640;48.770;9.148;2022-11-20T13:11:23;4.15;;;1.40;;
62580;SDS011;48640;48.770;9.148;2022-11-20T13:14:01;2.38;;;0.98;;
62580;SDS011;48640;48.770;9.148;2022-11-20T13:16:36;1.70;;;0.80;;
62580;SDS011;48640;48.770;9.148;2022-11-20T13:19:11;1.95;;;0.98;;
62580;SDS011;48640;48.770;9.148;2022-11-20T13:21:41;5.10;;;0.80;;
62580;SDS011;48640;48.770;9.148;2022-11-20T13:24:20;1.60;;;0.77;;
62580;SDS011;48640;48.770;9.148;2022-11-20T13:27:00;1.38;;;0.63;;
62580;SDS011;48640;48.770;9.148;2022-11-20T13:29:31;2.50;;;0.80;;
62580;SDS011;48640;48.770;9.148;2022-11-20T13:32:03;3.95;;;0.85;;
62580;SDS011;48640;48.770;9.148;2022-11-20T13:34:32;2.50;;;0.60;;
62580;SDS011;48640;48.770;9.148;2022-11-20T13:37:00;2.58;;;0.80;;
62580;SDS011;48640;48.770;9.148;2022-11-20T13:39:29;3.63;;;1.00;;
62580;SDS011;48640;48.770;9.148;2022-11-20T13:41:57;5.55;;;0.80;;
62580;SDS011;48640;48.770;9.148;2022-11-20T13:44:28;1.60;;;0.70;;
62580;SDS011;48640;48.770;9.148;2022-11-20T13:46:59;2.22;;;0.70;;
62580;SDS011;48640;48.770;9.148;2022-11-20T13:49:26;2.42;;;0.88;;
62580;SDS011;48640;48.770;9.148;2022-11-20T13:52:00;3.00;;;1.02;;
62580;SDS011;48640;48.770;9.148;2022-11-20T13:55:00;1.98;;;0.70;;
62580;SDS011;48640;48.770;9.148;2022-11-20T13:57:41;3.40;;;1.25;;
62580;SDS011;48640;48.770;9.148;2022-11-20T14:00:18;1.40;;;0.80;;
62580;SDS011;48640;48.770;9.148;2022-11-20T14:02:48;1.75;;;0.80;;
62580;SDS011;48640;48.770;9.148;2022-11-20T14:05:25;1.35;;;0.70;;
62580;SDS011;48640;48.770;9.148;2022-11-20T14:07:52;1.48;;;0.73;;
62580;SDS011;48640;48.770;9.148;2022-11-20T14:10:21;1.50;;;0.70;;
62580;SDS011;48640;48.770;9.148;2022-11-20T14:12:53;2.58;;;1.00;;
62580;SDS011;48640;48.770;9.148;2022-11-20T14:15:25;2.28;;;1.02;;
62580;SDS011;48640;48.770;9.148;2022-11-20T14:17:53;2.97;;;1.20;;
62580;SDS011;48640;48.770;9.148;2022-11-20T14:20:20;2.55;;;1.05;;
62580;SDS011;48640;48.770;9.148;2022-11-20T14:22:52;2.10;;;0.90;;
62580;SDS011;48640;48.770;9.148;2022-11-20T14:25:20;1.77;;;0.90;;
62580;SDS011;48640;48.770;9.148;2022-11-20T14:27:52;1.95;;;0.80;;
62580;SDS011;48640;48.770;9.148;2022-11-20T14:32:49;2.97;;;0.95;;
62580;SDS011;48640;48.770;9.148;2022-11-20T14:35:20;2.42;;;0.90;;
62580;SDS011;48640;48.770;9.148;2022-11-20T14:37:50;1.98;;;1.00;;
62580;SDS011;48640;48.770;9.148;2022-11-20T14:40:22;2.33;;;0.93;;
62580;SDS011;48640;48.770;9.148;2022-11-20T14:42:56;2.88;;;1.00;;
62580;SDS011;48640;48.770;9.148;2022-11-20T14:45:24;4.65;;;1.13;;
62580;SDS011;48640;48.770;9.148;2022-11-20T14:47:52;3.40;;;1.10;;
62580;SDS011;48640;48.770;9.148;2022-11-20T14:50:22;2.40;;;1.05;;
62580;SDS011;48640;48.770;9.148;2022-11-20T14:52:50;3.58;;;1.05;;
62580;SDS011;48640;48.770;9.148;2022-11-20T14:55:28;1.88;;;0.80;;
62580;SDS011;48640;48.770;9.148;2022-11-20T14:57:58;4.10;;;1.00;;
62580;SDS011;48640;48.770;9.148;2022-11-20T15:00:27;1.67;;;0.90;;
62580;SDS011;48640;48.770;9.148;2022-11-20T15:02:55;2.80;;;0.88;;
62580;SDS011;48640;48.770;9.148;2022-11-20T15:05:23;2.25;;;1.00;;
62580;SDS011;48640;48.770;9.148;2022-11-20T15:08:04;4.22;;;1.00;;
62580;SDS011;48640;48.770;9.148;2022-11-20T15:10:32;3.72;;;1.02;;
62580;SDS011;48640;48.770;9.148;2022-11-20T15:13:02;2.35;;;1.00;;
62580;SDS011;48640;48.770;9.148;2022-11-20T15:15:31;2.08;;;1.13;;